Time;durP1;ratioP1;P1;durP2;ratioP2;P2;SDS_P1;SDS_P2;PMS_P1;PMS_P2;Temp;Humidity;BMP_temperature;BMP_pressure;BME280_temperature;BME280_humidity;BME280_pressure;Samples;Min_cycle;Max_cycle;Signal;HPM_P1;HPM_P2
2023/07/31 00:01:47;;;;;;;1.83;1.17;;;20.20;33.40;;;;;;10490520;28;20263;-77
2023/07/31 00:06:50;;;;;;;1.67;1.40;;;20.20;33.50;;;;;;10487813;28;20236;-77
2023/07/31 00:11:57;;;;;;;1.30;1.20;;;20.10;33.60;;;;;;10489442;28;20226;-77
2023/07/31 00:17:00;;;;;;;2.13;1.30;;;20.10;33.80;;;;;;10514359;28;20256;-77
2023/07/31 00:22:03;;;;;;;1.47;1.37;;;20.00;33.80;;;;;;10489847;28;20316;-77
2023/07/31 00:27:09;;;;;;;3.10;1.40;;;19.90;34.00;;;;;;10490581;28;20655;-77
2023/07/31 00:32:12;;;;;;;3.20;1.40;;;19.90;34.30;;;;;;10489890;28;20641;-77
2023/07/31 00:37:15;;;;;;;1.93;1.30;;;19.80;33.90;;;;;;10489440;28;20255;-77
2023/07/31 00:42:22;;;;;;;2.57;1.50;;;19.80;34.30;;;;;;10496922;28;20232;-77
2023/07/31 00:47:26;;;;;;;1.80;1.70;;;19.60;34.60;;;;;;10495958;28;20239;-77
2023/07/31 00:52:29;;;;;;;2.03;1.67;;;19.70;34.50;;;;;;10521980;28;20286;-77
2023/07/31 00:57:35;;;;;;;2.37;1.60;;;19.60;34.70;;;;;;10495958;28;20238;-77
2023/07/31 01:02:39;;;;;;;2.33;1.63;;;19.50;35.10;;;;;;10495470;28;20311;-77
2023/07/31 01:07:50;;;;;;;4.07;1.70;;;19.30;34.80;;;;;;10495151;28;20259;-77
2023/07/31 01:12:56;;;;;;;1.77;1.50;;;19.10;35.70;;;;;;10496010;28;20428;-77
2023/07/31 01:17:59;;;;;;;1.53;1.43;;;19.10;35.70;;;;;;10494958;28;20235;-77
2023/07/31 01:23:36;;;;;;;2.23;1.77;;;19.10;35.70;;;;;;10495052;28;20771;-77
2023/07/31 01:28:51;;;;;;;1.77;1.37;;;19.10;35.70;;;;;;10490684;28;20316;-77
2023/07/31 01:33:57;;;;;;;2.77;1.53;;;19.10;36.10;;;;;;10494679;28;20303;-77
2023/07/31 01:39:01;;;;;;;2.00;1.63;;;19.00;35.70;;;;;;10494449;28;20224;-77
2023/07/31 01:44:06;;;;;;;1.70;1.50;;;19.00;35.60;;;;;;10483781;28;20567;-77
2023/07/31 01:49:09;;;;;;;1.60;1.50;;;18.90;35.90;;;;;;10508968;28;20337;-77
2023/07/31 01:54:12;;;;;;;2.07;1.43;;;18.90;35.50;;;;;;10493519;28;20232;-77
2023/07/31 01:59:17;;;;;;;2.10;1.50;;;18.80;35.50;;;;;;10493145;28;20228;-77
2023/07/31 02:04:20;;;;;;;1.47;1.37;;;18.80;36.00;;;;;;10493635;28;20244;-77
2023/07/31 02:09:23;;;;;;;4.23;1.60;;;18.80;35.50;;;;;;10493431;28;20250;-77
2023/07/31 02:14:28;;;;;;;1.57;1.30;;;18.80;35.90;;;;;;10495498;28;20231;-77
2023/07/31 02:19:31;;;;;;;1.80;1.70;;;18.70;36.50;;;;;;10495840;28;20263;-77
2023/07/31 02:24:34;;;;;;;3.87;1.40;;;18.70;36.10;;;;;;10493035;28;20306;-77
2023/07/31 02:29:39;;;;;;;1.50;1.40;;;18.70;36.10;;;;;;10492478;28;20232;-77
2023/07/31 02:34:42;;;;;;;1.70;1.30;;;18.70;36.60;;;;;;10492563;28;20310;-77
2023/07/31 02:39:45;;;;;;;3.33;1.30;;;18.80;36.20;;;;;;10492285;28;20269;-77
2023/07/31 02:44:51;;;;;;;2.20;1.40;;;18.80;36.20;;;;;;10491765;28;20307;-77
2023/07/31 02:49:55;;;;;;;2.17;1.30;;;18.80;36.50;;;;;;10491355;28;20228;-77
2023/07/31 02:54:59;;;;;;;2.57;1.70;;;18.80;36.20;;;;;;10491500;28;20232;-77
2023/07/31 03:00:06;;;;;;;3.00;1.80;;;18.70;36.10;;;;;;10490209;28;20228;-77
2023/07/31 03:05:09;;;;;;;2.40;1.10;;;18.70;36.70;;;;;;10490952;28;20259;-77
2023/07/31 03:10:12;;;;;;;1.43;1.33;;;18.70;36.30;;;;;;10474476;28;20230;-77
2023/07/31 03:15:17;;;;;;;1.67;1.40;;;18.70;36.30;;;;;;10491242;28;20229;-77
2023/07/31 03:20:20;;;;;;;2.37;1.23;;;18.60;36.70;;;;;;10490311;28;20252;-77
2023/07/31 03:25:24;;;;;;;1.80;1.40;;;18.60;36.30;;;;;;10490720;28;20232;-77
2023/07/31 03:30:28;;;;;;;1.57;1.47;;;18.60;36.30;;;;;;10489488;28;20232;-77
2023/07/31 03:35:31;;;;;;;1.30;1.20;;;18.50;36.60;;;;;;10489988;28;20220;-77
2023/07/31 03:40:34;;;;;;;3.30;1.40;;;18.50;36.30;;;;;;10490184;28;20894;-77
2023/07/31 03:45:39;;;;;;;1.37;1.27;;;18.50;36.30;;;;;;10489419;28;20238;-77
2023/07/31 03:50:44;;;;;;;2.97;1.60;;;18.50;36.60;;;;;;10490237;28;20238;-77
2023/07/31 03:55:47;;;;;;;1.50;1.27;;;18.40;36.50;;;;;;10489319;28;20323;-77
2023/07/31 04:00:52;;;;;;;2.20;1.50;;;18.40;36.70;;;;;;10489565;28;20654;-77
2023/07/31 04:05:56;;;;;;;1.70;1.60;;;18.40;36.90;;;;;;10489082;28;20258;-77
2023/07/31 04:10:59;;;;;;;3.80;1.50;;;18.30;36.80;;;;;;10498724;28;20254;-77
2023/07/31 04:16:04;;;;;;;2.07;1.70;;;18.30;36.70;;;;;;10495203;28;20230;-77
2023/07/31 04:21:07;;;;;;;1.70;1.37;;;18.20;37.00;;;;;;10498897;28;20239;-77
2023/07/31 04:26:11;;;;;;;2.00;1.60;;;18.10;36.80;;;;;;10479941;28;20232;-77
2023/07/31 04:31:16;;;;;;;3.20;1.63;;;18.00;37.30;;;;;;10495743;28;20234;-77
2023/07/31 04:36:19;;;;;;;3.83;1.80;;;17.90;37.70;;;;;;10495341;28;20316;-77
2023/07/31 04:41:24;;;;;;;1.90;1.40;;;17.90;37.60;;;;;;10495255;28;20599;-77
2023/07/31 04:46:29;;;;;;;3.93;1.80;;;17.90;37.70;;;;;;10506537;28;20263;-78
2023/07/31 04:51:32;;;;;;;3.13;1.80;;;17.90;38.30;;;;;;10495532;28;20255;-77
2023/07/31 04:56:35;;;;;;;1.77;1.67;;;17.90;38.00;;;;;;10494672;28;20789;-77
2023/07/31 05:01:40;;;;;;;2.80;1.83;;;17.90;38.00;;;;;;10494167;28;20247;-77
2023/07/31 05:06:43;;;;;;;2.43;1.80;;;17.90;38.70;;;;;;10494073;28;20656;-77
2023/07/31 05:11:46;;;;;;;1.80;1.70;;;18.00;38.60;;;;;;10508526;28;20224;-78
2023/07/31 05:16:51;;;;;;;3.10;1.93;;;18.10;39.00;;;;;;10493086;28;20795;-78
2023/07/31 05:21:54;;;;;;;2.83;1.80;;;18.20;39.70;;;;;;10494055;28;20697;-78
2023/07/31 05:26:57;;;;;;;3.10;2.00;;;18.20;39.50;;;;;;10497142;28;20307;-78
2023/07/31 05:32:02;;;;;;;3.10;2.07;;;18.30;39.60;;;;;;10501154;28;20227;-78
2023/07/31 05:37:06;;;;;;;2.10;1.90;;;18.40;40.30;;;;;;10489828;28;20228;-78
2023/07/31 05:42:09;;;;;;;3.93;1.77;;;18.50;40.10;;;;;;10496314;28;20847;-79
2023/07/31 05:47:14;;;;;;;2.57;1.77;;;18.60;40.10;;;;;;10504797;28;20236;-79
2023/07/31 05:52:18;;;;;;;1.60;1.50;;;18.70;40.50;;;;;;10478263;28;20235;-77
2023/07/31 05:57:21;;;;;;;3.63;1.87;;;18.90;40.60;;;;;;10489367;28;20311;-75
2023/07/31 06:02:26;;;;;;;1.93;1.70;;;19.00;40.40;;;;;;10488133;28;20642;-76
2023/07/31 06:07:29;;;;;;;2.00;1.50;;;19.10;40.80;;;;;;10479606;28;20319;-75
2023/07/31 06:12:33;;;;;;;1.90;1.70;;;19.30;40.60;;;;;;10486456;28;20248;-75
2023/07/31 06:17:38;;;;;;;3.13;1.70;;;19.50;40.90;;;;;;10485129;28;20970;-75
2023/07/31 06:22:41;;;;;;;1.90;1.73;;;19.60;40.90;;;;;;10487405;28;20235;-75
2023/07/31 06:27:44;;;;;;;2.37;1.90;;;19.70;40.60;;;;;;10488970;28;20228;-75
2023/07/31 06:32:49;;;;;;;2.10;1.70;;;19.90;40.70;;;;;;10496959;28;20228;-75
2023/07/31 06:37:53;;;;;;;2.90;2.03;;;20.00;40.40;;;;;;10485394;28;20306;-78
2023/07/31 06:42:56;;;;;;;1.70;1.60;;;20.10;40.50;;;;;;10483928;28;20221;-77
2023/07/31 06:48:01;;;;;;;2.77;1.80;;;20.20;40.50;;;;;;10488050;28;20235;-76
2023/07/31 06:53:05;;;;;;;2.57;1.80;;;20.30;40.60;;;;;;10437891;28;20227;-77
2023/07/31 06:58:08;;;;;;;2.17;1.63;;;20.50;40.50;;;;;;10454694;28;20256;-76
2023/07/31 07:03:14;;;;;;;2.80;1.70;;;20.60;39.70;;;;;;10417715;22;20235;-73
2023/07/31 07:08:17;;;;;;;1.97;1.60;;;20.70;39.40;;;;;;10411149;28;20237;-74
2023/07/31 08:08:32;;;;;;;2.30;1.60;;;19.00;43.80;;;;;;10464251;27;20565;-74
2023/07/31 08:13:36;;;;;;;2.13;1.70;;;19.40;43.80;;;;;;10487078;28;20228;-74
2023/07/31 08:18:40;;;;;;;2.03;1.60;;;20.20;43.00;;;;;;10464421;28;20232;-74
2023/07/31 08:23:51;;;;;;;1.97;1.80;;;21.00;41.30;;;;;;10488909;28;20304;-75
2023/07/31 08:28:54;;;;;;;4.10;2.17;;;21.60;39.90;;;;;;10486369;28;20228;-74
2023/07/31 08:33:57;;;;;;;2.30;1.80;;;22.10;38.80;;;;;;10486585;28;20589;-74
2023/07/31 08:39:02;;;;;;;1.70;1.60;;;22.40;38.60;;;;;;10484996;28;20227;-74
2023/07/31 08:44:06;;;;;;;2.20;2.00;;;22.70;38.30;;;;;;10490027;28;20228;-74
2023/07/31 08:49:11;;;;;;;2.63;1.80;;;22.90;37.80;;;;;;10490730;28;20253;-74
2023/07/31 08:54:15;;;;;;;1.90;1.70;;;23.00;37.60;;;;;;10490104;28;20227;-71
2023/07/31 08:59:21;;;;;;;3.83;1.90;;;23.20;36.70;;;;;;10490577;28;20235;-75
2023/07/31 09:04:25;;;;;;;1.90;1.70;;;23.30;37.00;;;;;;10489486;28;20239;-75
2023/07/31 09:09:30;;;;;;;2.23;1.63;;;23.40;36.50;;;;;;10480118;28;20228;-75
2023/07/31 09:14:34;;;;;;;3.33;2.20;;;23.50;36.20;;;;;;10488505;28;20221;-75
2023/07/31 09:19:38;;;;;;;2.70;2.00;;;23.50;36.00;;;;;;10462482;28;20232;-74
2023/07/31 09:24:43;;;;;;;3.47;2.27;;;23.50;35.80;;;;;;10466704;28;20315;-75
2023/07/31 09:29:59;;;;;;;2.70;2.00;;;23.60;36.10;;;;;;10461034;28;21359;-74
2023/07/31 09:35:06;;;;;;;2.30;2.00;;;23.60;36.30;;;;;;10459986;28;20224;-75
2023/07/31 09:40:27;;;;;;;2.10;1.90;;;23.70;36.10;;;;;;10454001;28;20225;-75
2023/07/31 09:45:31;;;;;;;2.67;1.90;;;23.70;35.50;;;;;;10461109;28;20243;-74
2023/07/31 09:50:46;;;;;;;2.07;1.90;;;23.80;36.20;;;;;;10459880;28;20224;-74
2023/07/31 09:55:50;;;;;;;1.93;1.70;;;24.00;35.80;;;;;;10454796;28;20278;-75
2023/07/31 10:00:54;;;;;;;2.13;1.83;;;24.10;33.90;;;;;;10457256;28;20224;-75
2023/07/31 10:06:00;;;;;;;2.03;1.67;;;24.30;35.00;;;;;;10457572;28;20221;-74
2023/07/31 10:11:06;;;;;;;2.27;2.07;;;24.50;34.70;;;;;;10451984;28;20235;-76
2023/07/31 10:16:10;;;;;;;2.00;1.80;;;24.70;32.70;;;;;;10453506;28;20621;-75
2023/07/31 10:21:14;;;;;;;2.53;1.80;;;24.70;33.70;;;;;;10461923;28;20225;-75
2023/07/31 10:26:20;;;;;;;1.80;1.70;;;24.80;33.50;;;;;;10464351;28;20224;-75
2023/07/31 10:31:24;;;;;;;2.67;1.90;;;24.90;32.70;;;;;;10457676;28;20232;-75
2023/07/31 10:36:27;;;;;;;3.00;1.80;;;25.00;32.70;;;;;;10463698;28;20235;-75
2023/07/31 10:41:32;;;;;;;2.03;1.83;;;25.10;32.40;;;;;;10458044;28;20235;-75
2023/07/31 10:46:37;;;;;;;7.33;2.20;;;25.20;31.70;;;;;;10465485;28;20612;-75
2023/07/31 10:51:43;;;;;;;3.30;2.30;;;25.20;32.50;;;;;;10455634;28;20228;-75
2023/07/31 10:56:47;;;;;;;2.07;1.70;;;25.20;32.00;;;;;;10461672;28;20255;-75
2023/07/31 11:01:52;;;;;;;3.37;2.07;;;25.20;31.90;;;;;;10465254;28;20228;-75
2023/07/31 11:06:59;;;;;;;2.10;1.80;;;25.40;31.70;;;;;;10451940;28;20595;-75
2023/07/31 11:12:04;;;;;;;3.07;1.90;;;25.40;30.80;;;;;;10454084;28;20603;-76
2023/07/31 11:17:08;;;;;;;2.03;1.80;;;25.60;31.80;;;;;;10453864;28;20785;-75
2023/07/31 11:22:12;;;;;;;2.17;1.97;;;25.70;31.70;;;;;;10460534;28;20679;-75
2023/07/31 11:27:16;;;;;;;2.23;2.03;;;25.80;31.10;;;;;;10450848;28;20224;-75
2023/07/31 11:32:20;;;;;;;3.17;2.03;;;25.80;30.50;;;;;;10455517;28;20235;-75
2023/07/31 11:37:24;;;;;;;2.70;2.03;;;25.80;30.00;;;;;;10452418;28;20245;-75
2023/07/31 11:42:28;;;;;;;3.30;2.10;;;25.80;30.10;;;;;;10456867;28;20313;-75
2023/07/31 11:47:34;;;;;;;2.77;2.00;;;25.90;30.00;;;;;;10457179;28;20236;-75
2023/07/31 11:52:42;;;;;;;2.43;1.90;;;26.00;29.50;;;;;;10437251;28;20734;-75
2023/07/31 11:57:48;;;;;;;2.87;1.97;;;26.00;29.20;;;;;;10408952;28;20246;-74
2023/07/31 12:02:52;;;;;;;2.07;1.90;;;26.10;29.30;;;;;;10414027;28;20227;-74
2023/07/31 12:07:56;;;;;;;2.63;2.10;;;26.10;29.80;;;;;;10412863;28;20724;-74
2023/07/31 12:13:05;;;;;;;2.60;2.00;;;26.20;29.60;;;;;;10417614;28;20225;-74
2023/07/31 12:18:11;;;;;;;3.80;2.03;;;26.30;29.40;;;;;;10410006;28;20228;-75
2023/07/31 12:23:16;;;;;;;3.20;2.00;;;26.40;29.40;;;;;;10415146;28;20225;-74
2023/07/31 12:28:23;;;;;;;4.43;2.30;;;26.50;29.60;;;;;;10442429;28;20600;-75
2023/07/31 12:33:32;;;;;;;3.50;1.87;;;26.70;29.10;;;;;;10458896;28;20236;-74
2023/07/31 12:38:35;;;;;;;2.17;1.80;;;26.70;28.80;;;;;;10453344;28;20224;-74
2023/07/31 12:43:41;;;;;;;2.20;1.90;;;26.80;29.60;;;;;;10460249;28;21184;-74
2023/07/31 12:48:44;;;;;;;2.20;1.90;;;26.80;28.40;;;;;;10452187;28;20232;-74
2023/07/31 12:53:48;;;;;;;3.43;2.27;;;26.80;29.60;;;;;;10461562;28;20225;-74
2023/07/31 12:58:52;;;;;;;2.03;1.90;;;26.80;29.60;;;;;;10459620;28;20340;-73
2023/07/31 13:03:55;;;;;;;2.63;1.80;;;26.90;29.00;;;;;;10466025;28;20232;-74
2023/07/31 13:08:59;;;;;;;3.03;2.03;;;26.90;29.20;;;;;;10461012;28;20236;-74
2023/07/31 13:14:03;;;;;;;2.03;1.93;;;26.90;29.10;;;;;;10456978;28;20220;-74
2023/07/31 13:19:07;;;;;;;3.07;2.10;;;27.00;28.70;;;;;;10452829;28;20231;-74
2023/07/31 13:24:10;;;;;;;1.97;1.83;;;27.00;29.40;;;;;;10456058;28;20229;-74
2023/07/31 13:29:15;;;;;;;2.53;1.77;;;27.00;29.60;;;;;;10465509;28;20685;-74
2023/07/31 13:34:18;;;;;;;2.40;1.87;;;27.00;29.60;;;;;;10456083;28;20220;-74
2023/07/31 13:39:21;;;;;;;1.87;1.77;;;27.00;29.60;;;;;;10463704;28;20241;-74
2023/07/31 13:44:26;;;;;;;2.10;1.90;;;27.00;29.10;;;;;;10457865;28;20263;-73
2023/07/31 13:49:30;;;;;;;2.80;1.77;;;27.00;28.80;;;;;;10458853;28;20228;-74
2023/07/31 13:54:33;;;;;;;1.83;1.73;;;27.00;29.10;;;;;;10460672;28;20220;-74
2023/07/31 13:59:37;;;;;;;3.27;2.30;;;27.10;29.10;;;;;;10453431;28;20727;-74
2023/07/31 14:04:40;;;;;;;2.80;2.23;;;27.10;27.60;;;;;;10458710;28;20231;-74
2023/07/31 14:09:44;;;;;;;3.50;2.20;;;27.10;28.30;;;;;;10455237;28;20229;-74
2023/07/31 14:14:48;;;;;;;2.50;2.20;;;27.10;28.00;;;;;;10459989;28;20792;-74
2023/07/31 14:19:51;;;;;;;2.60;2.13;;;27.10;27.50;;;;;;10455635;28;20236;-74
2023/07/31 14:24:55;;;;;;;2.60;2.40;;;27.20;28.10;;;;;;10457665;28;20600;-74
2023/07/31 14:29:59;;;;;;;2.23;2.00;;;27.20;27.90;;;;;;10458658;28;20224;-73
2023/07/31 14:35:03;;;;;;;2.87;2.30;;;27.30;27.60;;;;;;10459728;28;20221;-74
2023/07/31 14:40:10;;;;;;;4.13;2.10;;;27.50;27.70;;;;;;10457096;28;20230;-74
2023/07/31 14:45:15;;;;;;;3.43;2.10;;;27.50;26.40;;;;;;10457672;28;20795;-74
2023/07/31 14:50:20;;;;;;;3.10;2.03;;;27.40;27.10;;;;;;10461809;28;20764;-74
2023/07/31 14:55:24;;;;;;;2.47;2.20;;;27.30;27.20;;;;;;10460040;28;20327;-74
2023/07/31 15:00:29;;;;;;;2.60;2.37;;;27.30;27.10;;;;;;10455132;28;20701;-75
2023/07/31 15:05:33;;;;;;;2.90;2.70;;;27.20;27.30;;;;;;10456922;28;20232;-74
2023/07/31 15:10:36;;;;;;;2.47;2.10;;;27.20;27.70;;;;;;10452436;28;20727;-74
2023/07/31 15:15:41;;;;;;;3.60;2.50;;;27.20;27.50;;;;;;10452912;28;20311;-73
2023/07/31 15:20:44;;;;;;;4.30;2.30;;;27.20;27.50;;;;;;10457253;28;20238;-74
2023/07/31 15:25:47;;;;;;;3.83;2.50;;;27.10;27.50;;;;;;10458854;28;20235;-74
2023/07/31 15:30:52;;;;;;;2.57;2.37;;;27.10;27.40;;;;;;10458280;28;20309;-73
2023/07/31 15:35:55;;;;;;;3.20;2.03;;;27.10;27.20;;;;;;10457882;28;20237;-74
2023/07/31 15:40:58;;;;;;;2.53;2.20;;;26.90;27.40;;;;;;10460880;28;20749;-74
2023/07/31 15:46:03;;;;;;;2.50;2.30;;;26.80;27.50;;;;;;10451608;28;20648;-73
2023/07/31 15:51:10;;;;;;;4.80;2.63;;;26.70;27.70;;;;;;10459974;28;20252;-73
2023/07/31 15:56:13;;;;;;;4.13;2.70;;;26.70;27.80;;;;;;10456491;28;20224;-73
2023/07/31 16:01:17;;;;;;;3.07;2.50;;;26.60;27.80;;;;;;10459122;28;20895;-73
2023/07/31 16:06:21;;;;;;;2.97;2.63;;;26.60;27.80;;;;;;10455345;28;20235;-73
2023/07/31 16:11:24;;;;;;;3.27;2.50;;;26.50;27.90;;;;;;10459452;28;20634;-73
2023/07/31 16:16:29;;;;;;;2.47;2.27;;;26.50;27.90;;;;;;10455680;28;20224;-73
2023/07/31 16:21:32;;;;;;;2.17;1.97;;;26.50;27.70;;;;;;10455590;28;20224;-73
2023/07/31 16:26:35;;;;;;;2.40;2.20;;;26.40;27.90;;;;;;10457744;28;20220;-73
2023/07/31 16:31:40;;;;;;;2.30;2.10;;;26.30;28.00;;;;;;10464438;28;20235;-72
2023/07/31 16:36:58;;;;;;;2.23;2.10;;;26.20;28.10;;;;;;10454524;28;20220;-73
2023/07/31 16:42:02;;;;;;;3.07;2.40;;;26.20;28.20;;;;;;10454187;28;20235;-73
2023/07/31 16:47:07;;;;;;;2.13;2.00;;;26.10;28.10;;;;;;10466785;28;20315;-73
2023/07/31 16:52:10;;;;;;;2.80;2.50;;;26.10;28.00;;;;;;10459093;28;20229;-73
2023/07/31 16:57:13;;;;;;;2.47;2.27;;;26.00;28.10;;;;;;10464212;28;20311;-72
2023/07/31 17:02:18;;;;;;;3.17;2.30;;;26.00;28.30;;;;;;10460305;28;20315;-73
2023/07/31 17:07:23;;;;;;;3.80;2.10;;;26.00;28.30;;;;;;10461689;28;20270;-73
2023/07/31 17:12:27;;;;;;;2.53;2.20;;;26.00;28.30;;;;;;10459565;28;20231;-73
2023/07/31 17:17:32;;;;;;;2.73;2.20;;;26.00;28.20;;;;;;10468408;28;20236;-72
2023/07/31 17:22:35;;;;;;;4.60;2.33;;;26.00;28.20;;;;;;10462921;28;20228;-73
2023/07/31 17:27:50;;;;;;;2.87;2.30;;;25.90;28.30;;;;;;10466395;28;21201;-72
2023/07/31 17:32:57;;;;;;;3.43;2.47;;;25.80;28.50;;;;;;10460616;28;21175;-72
2023/07/31 17:38:00;;;;;;;3.43;2.30;;;25.70;28.20;;;;;;10461697;28;20285;-73
2023/07/31 17:43:03;;;;;;;2.57;2.37;;;25.70;28.50;;;;;;10462560;28;20446;-73
2023/07/31 17:48:08;;;;;;;2.57;2.37;;;25.50;28.90;;;;;;10460972;28;20321;-73
2023/07/31 17:53:11;;;;;;;2.60;2.40;;;25.50;28.90;;;;;;10465337;28;20228;-73
2023/07/31 17:58:15;;;;;;;3.23;2.43;;;25.50;29.00;;;;;;10463481;28;20232;-73
2023/07/31 18:03:21;;;;;;;3.00;2.80;;;25.40;28.90;;;;;;10460215;28;20228;-72
2023/07/31 18:08:24;;;;;;;3.00;2.70;;;25.40;28.90;;;;;;10447533;28;20322;-72
2023/07/31 18:13:27;;;;;;;2.53;2.33;;;25.30;28.80;;;;;;10475456;28;20239;-73
2023/07/31 18:18:32;;;;;;;2.90;2.60;;;25.20;28.80;;;;;;10458697;28;20237;-73
2023/07/31 18:23:35;;;;;;;4.47;2.70;;;25.20;28.80;;;;;;10461739;28;20220;-72
2023/07/31 18:28:41;;;;;;;4.40;2.60;;;25.10;28.80;;;;;;10456797;28;20323;-73
2023/07/31 18:33:46;;;;;;;3.67;2.60;;;25.10;29.20;;;;;;10463699;28;20610;-73
2023/07/31 18:38:49;;;;;;;2.97;2.60;;;25.00;29.40;;;;;;10460217;28;20240;-73
2023/07/31 18:43:52;;;;;;;3.27;2.60;;;25.00;29.40;;;;;;10467186;28;20228;-73
2023/07/31 18:48:56;;;;;;;2.47;2.27;;;25.00;29.70;;;;;;10455247;28;20229;-73
2023/07/31 18:54:00;;;;;;;4.20;3.30;;;24.90;29.90;;;;;;10461345;28;20216;-73
2023/07/31 18:59:03;;;;;;;5.83;3.13;;;24.90;30.00;;;;;;10456781;28;20217;-74
2023/07/31 19:04:07;;;;;;;5.47;3.53;;;25.00;30.10;;;;;;10464546;28;20240;-73
2023/07/31 19:09:12;;;;;;;3.47;3.10;;;25.00;30.20;;;;;;10461781;28;20228;-73
2023/07/31 19:14:15;;;;;;;3.90;3.10;;;24.90;30.20;;;;;;10460028;28;20323;-73
2023/07/31 19:19:19;;;;;;;4.90;3.20;;;24.80;30.50;;;;;;10457363;28;20315;-74
2023/07/31 19:24:23;;;;;;;10.07;7.47;;;24.80;30.80;;;;;;10455169;28;20267;-73
2023/07/31 19:29:37;;;;;;;9.70;6.67;;;24.70;30.60;;;;;;10453175;28;20228;-73
2023/07/31 19:34:42;;;;;;;4.97;4.30;;;24.50;30.80;;;;;;10462683;28;20332;-73
2023/07/31 19:39:46;;;;;;;4.03;3.50;;;24.40;31.40;;;;;;10457612;28;20362;-73
2023/07/31 19:44:50;;;;;;;4.00;3.07;;;24.30;31.10;;;;;;10457934;28;20228;-73
2023/07/31 19:49:54;;;;;;;5.03;2.87;;;24.10;31.30;;;;;;10456574;28;20229;-73
2023/07/31 19:54:58;;;;;;;3.87;2.80;;;24.00;32.00;;;;;;10452907;28;20299;-73
2023/07/31 20:00:02;;;;;;;3.57;2.70;;;23.90;32.00;;;;;;10456307;28;20235;-73
2023/07/31 20:05:08;;;;;;;3.47;3.03;;;23.70;32.30;;;;;;10448469;28;20773;-73
2023/07/31 20:10:11;;;;;;;3.20;2.90;;;23.60;33.10;;;;;;10454209;28;20723;-73
2023/07/31 20:15:21;;;;;;;3.00;2.70;;;23.40;32.60;;;;;;10452066;28;20224;-73
2023/07/31 20:20:26;;;;;;;3.63;2.73;;;23.30;33.60;;;;;;10456560;28;20259;-73
2023/07/31 20:25:32;;;;;;;3.33;2.63;;;23.30;33.40;;;;;;10456192;28;20315;-73
2023/07/31 20:30:35;;;;;;;3.07;2.30;;;23.20;33.20;;;;;;10457314;28;20229;-73
2023/07/31 20:35:40;;;;;;;3.97;2.97;;;23.10;33.10;;;;;;10449700;28;20231;-73
2023/07/31 20:40:43;;;;;;;4.50;2.70;;;23.10;33.60;;;;;;10451100;28;20232;-73
2023/07/31 20:45:49;;;;;;;3.50;2.80;;;23.00;33.20;;;;;;10451976;28;20235;-73
2023/07/31 20:50:54;;;;;;;3.43;2.80;;;23.00;33.10;;;;;;10452900;28;20636;-73
2023/07/31 20:55:58;;;;;;;3.00;2.60;;;22.90;33.40;;;;;;10447153;28;20229;-73
2023/07/31 21:01:01;;;;;;;3.10;2.80;;;22.90;33.20;;;;;;10450935;28;20995;-73
2023/07/31 21:06:05;;;;;;;2.70;2.50;;;22.90;33.50;;;;;;10445795;28;21116;-73
2023/07/31 21:11:09;;;;;;;3.93;2.20;;;22.90;33.90;;;;;;10451016;28;20235;-73
2023/07/31 21:16:12;;;;;;;3.87;2.50;;;23.00;33.60;;;;;;10457502;28;20232;-74
2023/07/31 21:21:17;;;;;;;3.30;2.63;;;23.10;33.30;;;;;;10453686;28;20235;-73
2023/07/31 21:26:20;;;;;;;3.10;2.77;;;23.20;33.60;;;;;;10463000;28;20234;-73
2023/07/31 21:31:23;;;;;;;3.23;2.77;;;23.30;33.40;;;;;;10457404;28;20237;-73
2023/07/31 21:36:28;;;;;;;3.40;2.80;;;23.30;33.40;;;;;;10457984;28;20232;-73
2023/07/31 21:41:31;;;;;;;4.67;2.60;;;23.30;33.90;;;;;;10461296;28;20231;-73
2023/07/31 21:46:34;;;;;;;2.80;2.27;;;23.30;33.70;;;;;;10457451;28;20236;-73
2023/07/31 21:51:39;;;;;;;4.40;2.83;;;23.30;34.20;;;;;;10457956;28;20233;-73
2023/07/31 21:56:42;;;;;;;3.00;2.70;;;23.40;35.20;;;;;;10455069;28;20336;-73
2023/07/31 22:01:45;;;;;;;3.40;3.00;;;23.40;34.80;;;;;;10453948;28;20252;-73
2023/07/31 22:06:52;;;;;;;3.00;2.70;;;23.40;35.00;;;;;;10458817;28;20266;-73
2023/07/31 22:11:56;;;;;;;3.97;3.00;;;23.40;35.30;;;;;;10454108;28;20389;-73
2023/07/31 22:16:59;;;;;;;3.97;3.00;;;23.40;35.20;;;;;;10452273;28;20229;-73
2023/07/31 22:22:04;;;;;;;3.43;2.97;;;23.30;34.80;;;;;;10451574;28;20232;-74
2023/07/31 22:27:08;;;;;;;3.20;2.87;;;23.20;36.00;;;;;;10454408;28;20371;-74
2023/07/31 22:32:11;;;;;;;3.00;2.80;;;23.20;35.80;;;;;;10457154;28;20383;-73
2023/07/31 22:37:15;;;;;;;3.13;2.80;;;23.20;35.90;;;;;;10467717;28;20235;-73
2023/07/31 22:42:18;;;;;;;2.90;2.60;;;23.20;36.80;;;;;;10455290;28;20282;-73
2023/07/31 22:47:21;;;;;;;5.77;2.70;;;23.10;36.10;;;;;;10455363;28;20237;-73
2023/07/31 22:52:26;;;;;;;3.70;2.70;;;23.00;36.40;;;;;;10462538;28;20252;-73
2023/07/31 22:57:29;;;;;;;3.20;2.40;;;23.00;37.30;;;;;;10455661;28;20608;-73
2023/07/31 23:02:32;;;;;;;3.73;2.87;;;22.90;36.60;;;;;;10451920;28;20228;-73
2023/07/31 23:07:37;;;;;;;3.57;2.90;;;22.90;36.80;;;;;;10457462;28;20228;-73
2023/07/31 23:12:40;;;;;;;3.97;2.80;;;22.90;37.50;;;;;;10465879;28;20224;-73
2023/07/31 23:17:43;;;;;;;3.50;3.20;;;22.80;37.10;;;;;;10458318;28;20232;-74
2023/07/31 23:22:48;;;;;;;2.57;2.37;;;22.80;37.10;;;;;;10457120;28;20233;-73
2023/07/31 23:27:51;;;;;;;3.87;2.83;;;22.90;38.20;;;;;;10460828;28;20225;-73
2023/07/31 23:32:54;;;;;;;5.20;3.03;;;22.90;37.50;;;;;;10455186;28;20232;-73
2023/07/31 23:37:59;;;;;;;5.37;3.37;;;22.80;37.60;;;;;;10457449;28;20241;-73
2023/07/31 23:43:02;;;;;;;3.47;3.00;;;22.70;38.80;;;;;;10461606;28;20228;-74
2023/07/31 23:48:05;;;;;;;4.90;2.97;;;22.60;38.10;;;;;;10456990;28;20770;-74
2023/07/31 23:53:10;;;;;;;4.23;2.77;;;22.60;38.70;;;;;;10451666;28;20220;-73
2023/07/31 23:58:14;;;;;;;3.63;3.17;;;22.50;38.70;;;;;;10455052;28;20239;-73
